Bookmark and Share
Track history (hours):
 

Miniplon

Last reported at 2014-Apr-18 13:32 UTC. Time now 2014-Apr-19 00:03 UTC.
Position N 46°30' W 001°47'.

Length 22 m.

Type: SAR. MMSI: 228024600.

NotesDate/timePositionNaut miles runAvg speedWind from/ knotsBaromVisibWave heightAir tempDewpointWater temp
2014-Apr-18 13:32N 46°30' W 001°47'4 4.0
2014-Apr-18 12:33N 46°31' W 001°53'14 0.5
2014-Apr-17 07:33N 46°43' W 002°04'10 9.6
2014-Apr-17 06:33N 46°35' W 001°56'9 8.6
2014-Apr-17 05:33N 46°29' W 001°47'1 0.8
2014-Apr-17 04:32N 46°30' W 001°47'  
2014-Apr-10 18:32N 46°30' W 001°47'0 0.3
2014-Apr-10 17:32N 46°30' W 001°48'0 0.0
2014-Apr-10 16:32N 46°30' W 001°48'0 0.0
2014-Apr-10 15:32N 46°30' W 001°48'0 0.0
2014-Apr-10 14:32N 46°30' W 001°48'0 0.0
2014-Apr-10 13:32N 46°30' W 001°48'0 0.3
2014-Apr-10 12:33N 46°30' W 001°47'0 0.0
2014-Apr-10 11:33N 46°30' W 001°47'0 0.0
2014-Apr-10 10:33N 46°30' W 001°47'0 0.1
2014-Apr-10 09:33N 46°30' W 001°47'0 0.1
2014-Apr-10 08:32N 46°30' W 001°47'0 0.0
2014-Apr-10 07:32N 46°30' W 001°47'0 0.0
2014-Apr-10 06:32N 46°30' W 001°47'0 0.0
2014-Apr-10 05:33N 46°30' W 001°47'0 0.3
2014-Apr-10 04:31N 46°30' W 001°48'0 0.0
2014-Apr-10 03:31N 46°30' W 001°48'0 0.0
2014-Apr-10 02:31N 46°30' W 001°48'0 0.0
2014-Apr-10 01:31N 46°30' W 001°48'0 0.0
2014-Apr-10 00:31N 46°30' W 001°48'0 0.0
2014-Apr-09 23:31N 46°30' W 001°48'0 0.0
2014-Apr-09 22:31N 46°30' W 001°48'0 0.0
2014-Apr-09 21:31N 46°30' W 001°48'0 0.0
2014-Apr-09 20:31N 46°30' W 001°48'0 0.0
2014-Apr-09 19:31N 46°30' W 001°48'0 0.0
2014-Apr-09 18:31N 46°30' W 001°48'3 3.6
2014-Apr-09 17:33N 46°32' W 001°52'5 0.5
2014-Apr-09 06:33N 46°36' W 001°55'8 8.2
2014-Apr-09 05:33N 46°30' W 001°48'0 0.2
2014-Apr-09 04:33N 46°30' W 001°47'0 0.0
2014-Apr-09 03:33N 46°30' W 001°47'0 0.0
2014-Apr-09 02:33N 46°30' W 001°47'0 0.0
2014-Apr-09 01:33N 46°30' W 001°47'0 0.0
2014-Apr-09 00:33N 46°30' W 001°47'0 0.0
2014-Apr-08 23:33N 46°30' W 001°47'0 0.0
2014-Apr-08 22:33N 46°30' W 001°47'0 0.0
2014-Apr-08 21:33N 46°30' W 001°47'0 0.0
2014-Apr-08 20:33N 46°30' W 001°47'0 0.0
2014-Apr-08 19:33N 46°30' W 001°47'0 0.0
2014-Apr-08 18:33N 46°30' W 001°47'0 0.0
2014-Apr-08 17:30N 46°30' W 001°47'0 0.3
2014-Apr-08 16:31N 46°30' W 001°48'5 5.1
2014-Apr-08 15:33N 46°32' W 001°54'  

Dump ship's entire track history

sailing weather and tide predictions

Miniplon — FIDV — position and weather